Terminal Aerodrome Forecast
Issued by NWS

Home | Current Version | Previous Version | Text Only | Print | Product List | Glossary On
Versions: 1 2 3 4 5 6 7 8 9 10 11 12 13 14 15 16 17
000
FTUS46 KMTR 271724
TAFSNS
TAF
KSNS 271724Z 2718/2818 28003KT P6SM OVC022
      TEMPO 2718/2719 SCT022
     FM271900 28012G20KT P6SM FEW025
     FM280200 28009KT P6SM BKN014
     FM281000 VRB03KT P6SM OVC009=

USA.gov is the U.S. government's official web portal to all federal, state and local government web resources and services.